Redondo, Valles Caldera, New Mexico Weather observations

Data are for 10 minute period ending at time listed.
 Day   Time   Solar   Ave.   Ave.  Ave.  Vector  Max.   Baro.   Total    
  of    of     Rad.   Air    Rel.  Wind   Wind   Wind  Press.  Precip.   
Year   Day            Temp.  Hum.  Speed  Dir.   Gust                    
2016   (MST)  Kw/m2    F      %     mph   deg.    mph    mb.     in.     
-------------------------------------------------------------------------
 121   16:30   0.13   35.3    58    1.2   299     4.2   682.2    0.00 
 121   16:40   0.08   35.0    58    1.2   297     2.4   682.3    0.00 
 121   16:50   0.07   34.8    61    2.2   349     4.8   682.4    0.00 
 121   17:00   0.05   34.0    65    2.0    49     4.2   682.5    0.00 
 121   17:10   0.03   33.1    68    2.1     1     3.0   682.6    0.00 
 121   17:20   0.02   31.4    76    1.4   174     3.6   682.7    0.00 
 121   17:30   100.00  99999.0   99999  99999.0   99999   99999.0   99999.0   99999.00 
 121   17:40   100.00  99999.0   99999  99999.0   99999   99999.0   99999.0   99999.00 
 121   17:50   100.00  99999.0   99999  99999.0   99999   99999.0   99999.0   99999.00 
 121   18:00   100.00  99999.0   99999  99999.0   99999   99999.0   99999.0   99999.00 
 121   18:10   100.00  99999.0   99999  99999.0   99999   99999.0   99999.0   99999.00 
 121   18:20   100.00  99999.0   99999  99999.0   99999   99999.0   99999.0   99999.00 
 121   18:30   100.00  99999.0   99999  99999.0   99999   99999.0   99999.0   99999.00 
 121   18:40   100.00  99999.0   99999  99999.0   99999   99999.0   99999.0   99999.00 
 121   18:50   100.00  99999.0   99999  99999.0   99999   99999.0   99999.0   99999.00 
 121   19:00   100.00  99999.0   99999  99999.0   99999   99999.0   99999.0   99999.00 
 121   19:10   100.00  99999.0   99999  99999.0   99999   99999.0   99999.0   99999.00 
 121   19:20   100.00  99999.0   99999  99999.0   99999   99999.0   99999.0   99999.00 
 121   19:30   100.00  99999.0   99999  99999.0   99999   99999.0   99999.0   99999.00 
 121   19:40   100.00  99999.0   99999  99999.0   99999   99999.0   99999.0   99999.00 
 121   19:50   100.00  99999.0   99999  99999.0   99999   99999.0   99999.0   99999.00 
 121   20:00   100.00  99999.0   99999  99999.0   99999   99999.0   99999.0   99999.00 
 121   20:10   100.00  99999.0   99999  99999.0   99999   99999.0   99999.0   99999.00 
 121   20:20   100.00  99999.0   99999  99999.0   99999   99999.0   99999.0   99999.00 
 121   20:30   100.00  99999.0   99999  99999.0   99999   99999.0   99999.0   99999.00 
 121   20:40   100.00  99999.0   99999  99999.0   99999   99999.0   99999.0   99999.00 
 121   20:50   100.00  99999.0   99999  99999.0   99999   99999.0   99999.0   99999.00 
 121   21:00   100.00  99999.0   99999  99999.0   99999   99999.0   99999.0   99999.00 
 121   21:10   100.00  99999.0   99999  99999.0   99999   99999.0   99999.0   99999.00 
 121   21:20   100.00  99999.0   99999  99999.0   99999   99999.0   99999.0   99999.00 
 121   21:30   100.00  99999.0   99999  99999.0   99999   99999.0   99999.0   99999.00 
 121   21:40   100.00  99999.0   99999  99999.0   99999   99999.0   99999.0   99999.00 
 121   21:50   100.00  99999.0   99999  99999.0   99999   99999.0   99999.0   99999.00 
 121   22:00   100.00  99999.0   99999  99999.0   99999   99999.0   99999.0   99999.00 
 121   22:10   100.00  99999.0   99999  99999.0   99999   99999.0   99999.0   99999.00 
 121   22:20   100.00  99999.0   99999  99999.0   99999   99999.0   99999.0   99999.00 
 121   22:30   0.00   27.0    96    2.9   156     7.2   683.5    0.00 
 121   22:40   0.00   27.2    96    2.9   143    10.8   683.4    0.00 
 121   22:50   0.00   27.1    96    2.8   155     5.4   683.4    0.00 
 121   23:00   0.00   27.0    96    3.2   151     8.4   683.3    0.00 
 121   23:10   0.00   26.9    96    3.3   157     7.2   683.2    0.00 
 121   23:20   0.00   26.9    96    3.5   144     8.4   683.3    0.00 
 121   23:30   0.00   26.9    96    3.4   142     6.6   683.3    0.00 
 121   23:40   0.00   26.8    96    4.5   151    10.2   683.4    0.00 
 121   23:50   0.00   26.9    96    3.8   160     8.4   683.2    0.00 
 122    0:00   0.00   26.9    96    3.7   156     9.0   683.4    0.00 
 122    0:10   0.00   26.9    96    3.8   163     9.6   683.4    0.00 
 122    0:20   0.00   26.9    96    4.9   157    10.2   683.4    0.00 
 122    0:30   0.00   26.9    96    3.7   158     9.6   683.4    0.00 
 122    0:40   0.00   26.8    96    4.1   158    11.3   683.5    0.00 
 122    0:50   0.00   26.8    96    3.9   159    10.8   683.4    0.00 
 122    1:00   0.00   26.7    96    2.5   146    10.2   683.3    0.00 
 122    1:10   0.00   26.6    96    0.0     0     0.0   683.2    0.00 
 122    1:20   0.00   26.6    96    0.0     0     0.0   683.1    0.00 
 122    1:30   0.00   26.4    96    0.0     0     0.0   683.1    0.00 
 122    1:40   0.00   26.3    96    0.0     0     0.0   683.0    0.00 
 122    1:50   0.00   26.1    96    0.0     0     0.0   682.9    0.00 
 122    2:00   0.00   26.0    96    0.0     0     0.0   682.9    0.00 
 122    2:10   0.00   26.0    96    0.0     0     0.0   682.9    0.00 
 122    2:20   0.00   25.9    96    0.0     0     0.0   682.9    0.00 
 122    2:30   0.00   25.8    96    1.3   159    10.8   683.0    0.00 
 122    2:40   0.00   25.8    96    6.1   154    13.7   683.1    0.00 
 122    2:50   0.00   25.7    96    5.8   155    14.3   683.1    0.00 
 122    3:00   0.00   25.5    96    6.0   155    14.3   683.0    0.00 
 122    3:10   0.00   25.4    96    5.6   153    12.5   683.1    0.00 
 122    3:20   0.00   25.5    96    5.7   149    14.3   683.2    0.00 
 122    3:30   0.00   25.4    96    5.7   156    14.3   683.2    0.00 
 122    3:40   0.00   25.2    96    5.2   157    14.3   683.3    0.00 
 122    3:50   0.00   25.0    96    5.1   160    14.3   683.3    0.00 
 122    4:00   0.00   24.9    96    5.2   155    11.9   683.3    0.00 
 122    4:10   0.00   24.7    95    5.2   154    11.3   683.4    0.00 
 122    4:20   0.00   24.5    95    4.5   162     9.6   683.4    0.00 
 122    4:30   0.00   24.4    95    5.7   159    12.5   683.3    0.00 
 122    4:40   0.00   24.4    95    4.6   154    10.2   683.4    0.00 
 122    4:50   0.00   24.4    95    4.7   160    11.9   683.4    0.00 
 122    5:00   0.00   24.3    95    4.7   158    14.3   683.4    0.00 
 122    5:10   0.00   24.2    95    4.4   160    11.3   683.3    0.00 
 122    5:20   0.00   24.2    95    4.7   162    11.3   683.4    0.00 
 122    5:30   0.01   24.1    95    4.6   148    11.9   683.5    0.00 
 122    5:40   0.02   24.2    95    4.1   155    10.8   683.6    0.00 
 122    5:50   0.01   24.2    95    4.7   161    13.1   683.7    0.00 
 122    6:00   0.01   24.1    95    4.8   156    11.9   683.8    0.00 
 122    6:10   0.02   24.1    95    4.6   166     9.0   683.9    0.00 
 122    6:20   0.03   24.2    95    3.7   158     8.4   683.9    0.00 
 122    6:30   0.05   24.4    95    3.2   166     8.4   684.0    0.00 
 122    6:40   0.03   24.2    95    4.1   160    10.2   684.1    0.00 
 122    6:50   0.03   24.1    95    4.6   167    10.2   684.2    0.00 
 122    7:00   0.04   23.9    95    4.7   163    10.2   684.3    0.00 
 122    7:10   0.05   23.8    95    4.8   159     9.0   684.3    0.00 
 122    7:20   0.08   23.9    95    4.3   170     9.0   684.4    0.00 
 122    7:30   0.06   23.9    95    4.3   161    10.2   684.6    0.00 
 122    7:40   0.06   23.8    95    3.8   170     8.4   684.6    0.00 
 122    7:50   0.07   23.9    95    3.5   160     6.6   684.6    0.00 
 122    8:00   0.08   24.0    95    4.0   171     9.6   684.8    0.00 
 122    8:10   0.07   23.8    95    3.7   158     8.4   684.9    0.00 
 122    8:20   0.10   23.9    95    3.6   153     8.4   685.0    0.00 
 122    8:30   0.14   24.1    95    3.2   169     7.8   685.0    0.00 
 122    8:40   0.20   24.4    95    3.9   165     9.0   685.1    0.00 
 122    8:50   0.18   24.5    95    3.6   157     7.2   685.1    0.00 
 122    9:00   0.18   24.3    95    4.1   164    12.5   685.2    0.00 
 122    9:10   0.17   23.8    95    4.4   162     9.0   685.2    0.00 
 122    9:20   0.22   23.8    95    4.4   165     9.6   685.3    0.00 
 122    9:30   0.25   24.1    95    4.5   160    12.5   685.4    0.00 
 122    9:40   0.18   23.7    94    4.7   164    13.1   685.5    0.00 
 122    9:50   0.18   23.6    95    3.8   168     9.6   685.6    0.00 
 122   10:00   0.22   23.8    95    4.3   164    10.8   685.7    0.00 
 122   10:10   0.20   23.8    95    4.0   164     8.4   685.7    0.00 
 122   10:20   0.22   23.7    95    4.5   163     9.6   685.8    0.00 
 122   10:30   0.30   24.0    95    3.8   159     9.6   685.8    0.00 
 122   10:40   0.28   24.3    95    3.9   163     9.6   685.9    0.00 
 122   10:50   0.34   24.6    95    4.0   167    10.2   686.1    0.00 
 122   11:00   0.23   24.4    94    3.2   175     8.4   686.1    0.00 
 122   11:10   0.24   24.4    95    3.2   163     7.8   686.2    0.00 
 122   11:20   0.30   24.7    95    3.3   166     8.4   686.1    0.00 
 122   11:30   0.22   24.6    94    4.2   158     7.2   686.0    0.00 
 122   11:40   0.15   23.7    94    3.6   168     7.8   686.1    0.00 
 122   11:50   0.30   23.8    94    3.9   162     8.4   686.1    0.00 
 122   12:00   0.34   24.5    95    4.6   161    10.8   686.0    0.00 
 122   12:10   0.30   24.3    94    4.7   164    10.2   686.1    0.00 
 122   12:20   0.22   23.9    94    5.6   166    12.5   686.2    0.00 
 122   12:30   0.28   23.7    94    5.6   175    11.3   686.1    0.00 
 122   12:40   0.36   24.2    95    5.3   170    13.7   686.2    0.00 
 122   12:50   0.40   24.8    95    5.5   168    13.1   686.2    0.00 
 122   13:00   0.27   24.4    94    4.9   169     9.6   686.3    0.00 
 122   13:10   0.27   24.3    94    5.6   170    11.9   686.4    0.00 
 122   13:20   0.22   24.1    94    4.4   170     9.6   686.4    0.00 
 122   13:30   0.25   24.3    94    6.4   182    13.1   686.4    0.00 
 122   13:40   0.31   24.2    94    5.2   173     9.6   686.4    0.00 
 122   13:50   0.31   24.3    94    5.8   173    11.9   686.4    0.00 
 122   14:00   0.34   24.6    94    5.7   176    13.7   686.5    0.00 
 122   14:10   0.32   24.7    94    5.3   168    10.8   686.5    0.00 
 122   14:20   0.34   24.9    94    4.8   178    10.2   686.5    0.00 
 122   14:30   0.25   25.1    94    5.0   169    11.3   686.5    0.00 
 122   14:40   0.17   24.3    94    5.0   169     9.6   686.5    0.00 
 122   14:50   0.20   24.0    94    5.3   163    13.1   686.6    0.00 
 122   15:00   0.27   24.5    95    5.6   167    12.5   686.6    0.00 
 122   15:10   0.17   24.5    94    4.8   168    11.3   686.6    0.00 
 122   15:20   0.19   24.5    94    5.0   167    13.7   686.6    0.00 
 122   15:30   0.23   24.8    95    5.0   167    10.8   686.6    0.00 
 122   15:40   0.17   24.7    94    2.3   161     9.0   686.7    0.00 
 122   15:50   0.18   24.6    94    0.0     0     0.0   686.7    0.00 
 122   16:00   0.20   24.6    94    0.0     0     0.0   686.7    0.00 
 122   16:10   0.26   24.9    95    0.0     0     0.0   686.8    0.00 
 122   16:20   0.21   25.3    95    2.2   170     7.2   686.9    0.00 

Return to Redondo, Valles Caldera graphs page.


Western Regional Climate Center,wrcc@dri.edu